createdAt,value
2018-12-05T00:00:26.315Z,81.24
2018-12-05T00:02:55.575Z,81.41
2018-12-05T00:05:24.884Z,80.87
2018-12-05T00:07:54.092Z,81.08
2018-12-05T00:10:23.245Z,80.30
2018-12-05T00:12:52.493Z,80.94
2018-12-05T00:15:21.648Z,80.77
2018-12-05T00:17:51.130Z,80.27
2018-12-05T00:20:20.309Z,80.62
2018-12-05T00:22:49.522Z,80.39
2018-12-05T00:25:19.008Z,80.49
2018-12-05T00:27:48.135Z,79.66
2018-12-05T00:30:17.377Z,79.81
2018-12-05T00:32:46.557Z,80.70
2018-12-05T00:35:15.759Z,81.05
2018-12-05T00:37:45.097Z,79.69
2018-12-05T00:40:14.611Z,80.97
2018-12-05T00:42:43.795Z,80.93
2018-12-05T00:45:12.961Z,81.54
2018-12-05T00:47:43.010Z,80.67
2018-12-05T00:50:12.421Z,81.86
2018-12-05T00:52:41.594Z,82.12
2018-12-05T00:55:10.806Z,81.53
2018-12-05T00:57:39.948Z,81.00
2018-12-05T01:00:09.986Z,80.98
2018-12-05T01:02:40.174Z,80.11
2018-12-05T01:05:11.255Z,80.94
2018-12-05T01:07:41.377Z,79.99
2018-12-05T01:10:10.754Z,80.04
2018-12-05T01:12:40.188Z,79.96
2018-12-05T01:15:09.581Z,80.17
2018-12-05T01:17:38.722Z,81.04
2018-12-05T01:20:08.157Z,80.96
2018-12-05T01:22:37.585Z,81.97
2018-12-05T01:25:07.032Z,81.34
2018-12-05T01:27:36.286Z,80.65
2018-12-05T01:30:05.921Z,80.16
2018-12-05T01:32:35.046Z,80.35
2018-12-05T01:35:04.473Z,79.96
2018-12-05T01:37:33.692Z,80.63
2018-12-05T01:40:02.966Z,80.86
2018-12-05T01:42:32.124Z,81.21
2018-12-05T01:45:01.627Z,81.72
2018-12-05T01:47:30.822Z,80.83
2018-12-05T01:49:59.965Z,81.14
2018-12-05T01:52:29.212Z,82.55
2018-12-05T01:54:59.409Z,82.30
2018-12-05T01:57:28.573Z,81.94
2018-12-05T01:59:57.802Z,83.17
2018-12-05T02:02:28.126Z,82.49
2018-12-05T02:04:57.609Z,82.70
2018-12-05T02:07:26.877Z,83.62
2018-12-05T02:09:56.042Z,83.17
2018-12-05T02:12:25.227Z,82.89
2018-12-05T02:14:54.782Z,82.89
2018-12-05T02:17:23.932Z,82.27
2018-12-05T02:19:53.088Z,83.40
2018-12-05T02:22:22.559Z,83.29
2018-12-05T02:24:51.883Z,82.39
2018-12-05T02:27:21.117Z,82.78
2018-12-05T02:29:56.187Z,83.21
2018-12-05T02:32:25.453Z,83.22
2018-12-05T02:34:54.571Z,83.58
2018-12-05T02:37:25.048Z,83.69
2018-12-05T02:39:54.610Z,83.77
2018-12-05T02:42:23.786Z,83.85
2018-12-05T02:44:52.977Z,84.02
2018-12-05T02:47:22.871Z,83.79
2018-12-05T02:49:52.339Z,84.30
2018-12-05T02:52:21.559Z,83.64
2018-12-05T02:54:50.718Z,83.71
2018-12-05T02:57:19.855Z,83.63
2018-12-05T02:59:49.468Z,84.14
2018-12-05T03:02:18.730Z,84.30
2018-12-05T03:04:48.131Z,83.93
2018-12-05T03:07:17.762Z,84.62
2018-12-05T03:09:46.933Z,85.02
2018-12-05T03:12:16.148Z,84.28
2018-12-05T03:14:45.380Z,84.54
2018-12-05T03:17:14.540Z,84.85
2018-12-05T03:19:43.998Z,84.77
2018-12-05T03:22:13.320Z,84.17
2018-12-05T03:24:42.485Z,85.15
2018-12-05T03:27:11.792Z,84.60
2018-12-05T03:29:40.945Z,84.04
2018-12-05T03:32:12.113Z,83.08
2018-12-05T03:34:42.238Z,83.08
2018-12-05T03:37:12.499Z,82.97
2018-12-05T03:39:41.791Z,82.75
2018-12-05T03:42:13.050Z,83.26
2018-12-05T03:44:42.225Z,83.11
2018-12-05T03:47:11.353Z,83.00
2018-12-05T03:49:45.724Z,83.20
2018-12-05T03:52:14.919Z,82.93
2018-12-05T03:54:44.506Z,82.94
2018-12-05T03:57:13.743Z,83.50
2018-12-05T03:59:43.042Z,83.61
2018-12-05T04:02:12.262Z,83.80
2018-12-05T04:04:41.656Z,84.59
2018-12-05T04:07:10.798Z,84.43
2018-12-05T04:09:40.386Z,84.90
2018-12-05T04:12:09.875Z,85.13
2018-12-05T04:14:39.064Z,84.49
2018-12-05T04:17:08.243Z,85.50
2018-12-05T04:19:37.506Z,84.17
2018-12-05T04:22:06.902Z,83.68
2018-12-05T04:24:36.597Z,83.12
2018-12-05T04:27:05.973Z,83.45
2018-12-05T04:29:36.112Z,84.59
2018-12-05T04:32:05.316Z,84.31
2018-12-05T04:34:34.482Z,84.66
2018-12-05T04:37:04.100Z,85.41
2018-12-05T04:39:33.699Z,85.15
2018-12-05T04:42:02.943Z,86.13
2018-12-05T04:44:33.630Z,84.93
2018-12-05T04:47:02.820Z,86.20
2018-12-05T04:49:32.047Z,86.07
2018-12-05T04:52:01.282Z,86.05
2018-12-05T04:54:30.430Z,86.17
2018-12-05T04:57:00.410Z,86.99
2018-12-05T04:59:29.604Z,86.83
2018-12-05T05:01:59.033Z,86.68
2018-12-05T05:04:28.273Z,86.91
2018-12-05T05:06:57.484Z,87.43
2018-12-05T05:09:26.631Z,87.05
2018-12-05T05:11:55.906Z,87.94
2018-12-05T05:14:25.105Z,88.34
2018-12-05T05:16:54.294Z,88.30
2018-12-05T05:19:23.441Z,87.69
2018-12-05T05:21:52.587Z,87.64
2018-12-05T05:24:21.728Z,87.23
2018-12-05T05:26:52.178Z,87.47
2018-12-05T05:29:21.361Z,88.40
2018-12-05T05:31:50.567Z,87.59
2018-12-05T05:34:19.707Z,88.00
2018-12-05T05:36:48.902Z,87.81
2018-12-05T05:39:18.195Z,87.75
2018-12-05T05:41:47.374Z,88.62
2018-12-05T05:44:16.507Z,87.25
2018-12-05T05:46:45.681Z,88.09
2018-12-05T05:49:14.863Z,88.06
2018-12-05T05:51:44.252Z,87.95
2018-12-05T05:54:13.620Z,87.49
2018-12-05T05:56:42.816Z,87.82
2018-12-05T05:59:12.447Z,88.13
2018-12-05T06:01:42.341Z,88.63
2018-12-05T06:04:11.687Z,88.48
2018-12-05T06:06:41.822Z,88.37
2018-12-05T06:09:10.947Z,88.62
2018-12-05T06:11:40.190Z,89.46
2018-12-05T06:14:09.790Z,89.19
2018-12-05T06:16:39.019Z,89.46
2018-12-05T06:19:08.261Z,88.70
2018-12-05T06:21:37.423Z,88.55
2018-12-05T06:24:06.657Z,89.01
2018-12-05T06:26:36.089Z,88.48
2018-12-05T06:29:05.334Z,88.46
2018-12-05T06:31:34.537Z,88.78
2018-12-05T06:34:03.761Z,88.94
2018-12-05T06:36:32.986Z,89.24
2018-12-05T06:39:02.134Z,88.83
2018-12-05T06:41:33.132Z,88.81
2018-12-05T06:44:02.351Z,89.36
2018-12-05T06:46:32.137Z,89.29
2018-12-05T06:49:01.370Z,88.56
2018-12-05T06:51:30.523Z,89.42
2018-12-05T06:53:59.772Z,89.27
2018-12-05T06:56:29.026Z,89.33
2018-12-05T06:58:59.184Z,89.84
2018-12-05T07:01:28.391Z,89.96
2018-12-05T07:03:58.104Z,90.16
2018-12-05T07:06:27.588Z,90.40
2018-12-05T07:08:56.780Z,90.41
2018-12-05T07:11:26.006Z,90.29
2018-12-05T07:13:55.189Z,89.93
2018-12-05T07:16:25.549Z,90.27
2018-12-05T07:18:54.901Z,90.89
2018-12-05T07:21:24.104Z,89.95
2018-12-05T07:23:53.358Z,90.10
2018-12-05T07:26:22.626Z,89.61
2018-12-05T07:28:52.176Z,89.39
2018-12-05T07:31:21.566Z,89.34
2018-12-05T07:33:52.533Z,88.83
2018-12-05T07:36:21.794Z,88.64
2018-12-05T07:38:51.606Z,89.30
2018-12-05T07:41:21.775Z,89.05
2018-12-05T07:43:52.362Z,88.47
2018-12-05T07:46:34.808Z,89.54
2018-12-05T07:49:07.278Z,89.36
2018-12-05T07:51:36.621Z,89.56
2018-12-05T07:54:06.735Z,89.52
2018-12-05T07:56:36.214Z,89.26
2018-12-05T07:59:05.416Z,89.28
2018-12-05T08:01:34.538Z,89.32
2018-12-05T08:04:05.411Z,89.08
2018-12-05T08:06:35.330Z,88.78
2018-12-05T08:09:07.206Z,88.98
2018-12-05T08:11:36.458Z,88.96
2018-12-05T08:14:06.710Z,89.33
2018-12-05T08:16:36.344Z,89.54
2018-12-05T08:19:05.645Z,89.82
2018-12-05T08:21:34.951Z,89.28
2018-12-05T08:24:04.187Z,88.55
2018-12-05T08:26:33.490Z,88.87
2018-12-05T08:29:03.561Z,88.57
2018-12-05T08:31:32.902Z,88.53
2018-12-05T08:34:02.029Z,89.02
2018-12-05T08:36:31.307Z,88.62
2018-12-05T08:39:00.688Z,87.71
2018-12-05T08:41:30.286Z,87.45
2018-12-05T08:44:00.618Z,87.57
2018-12-05T08:46:30.558Z,87.70
2018-12-05T08:49:00.390Z,86.94
2018-12-05T08:51:29.716Z,86.70
2018-12-05T08:53:58.921Z,86.04
2018-12-05T08:56:28.146Z,86.11
2018-12-05T08:58:57.330Z,86.35
2018-12-05T09:01:26.643Z,86.00
2018-12-05T09:03:57.185Z,85.14
2018-12-05T09:06:26.494Z,85.22
2018-12-05T09:08:55.739Z,84.96
2018-12-05T09:11:24.921Z,84.29
2018-12-05T09:13:54.194Z,84.19
2018-12-05T09:16:23.571Z,83.74
2018-12-05T09:18:53.192Z,83.62
2018-12-05T09:21:23.440Z,83.16
2018-12-05T09:23:52.792Z,82.64
2018-12-05T09:26:23.817Z,82.44
2018-12-05T09:28:57.337Z,82.15
2018-12-05T09:31:25.578Z,81.59
2018-12-05T09:33:55.970Z,81.61
2018-12-05T09:36:25.808Z,81.37
2018-12-05T09:38:55.162Z,80.85
2018-12-05T09:41:24.299Z,80.74
2018-12-05T09:43:53.651Z,80.86
2018-12-05T09:46:22.919Z,80.43
2018-12-05T09:48:52.224Z,80.33
2018-12-05T09:51:21.365Z,80.02
2018-12-05T09:53:50.566Z,79.90
2018-12-05T09:56:20.493Z,79.21
2018-12-05T09:58:49.679Z,79.16
2018-12-05T10:01:19.212Z,79.08
2018-12-05T10:03:48.344Z,79.18
2018-12-05T10:06:17.546Z,79.13
2018-12-05T10:08:46.763Z,78.51
2018-12-05T10:11:15.953Z,78.00
2018-12-05T10:13:45.331Z,77.38
2018-12-05T10:16:16.454Z,76.75
2018-12-05T10:18:45.982Z,76.71
2018-12-05T10:21:16.130Z,76.39
2018-12-05T10:23:45.430Z,76.32
2018-12-05T10:26:14.668Z,75.47
2018-12-05T10:28:46.948Z,75.58
2018-12-05T10:31:16.836Z,75.68
2018-12-05T10:33:50.863Z,76.49
2018-12-05T10:36:21.206Z,75.99
2018-12-05T10:38:50.478Z,76.65
2018-12-05T10:41:19.988Z,76.67
2018-12-05T10:43:49.432Z,76.70
2018-12-05T10:46:19.246Z,76.29
2018-12-05T10:48:48.511Z,74.88
2018-12-05T10:51:17.677Z,74.06
2018-12-05T10:53:48.146Z,73.87
2018-12-05T10:56:17.545Z,73.29
2018-12-05T10:58:47.344Z,73.81
2018-12-05T11:01:21.882Z,74.64
2018-12-05T11:03:51.576Z,73.53
2018-12-05T11:06:27.545Z,72.96
2018-12-05T11:09:59.843Z,72.26
2018-12-05T11:12:34.342Z,70.74
2018-12-05T11:15:09.599Z,70.67
2018-12-05T11:17:44.567Z,70.29
2018-12-05T11:20:19.430Z,69.53
2018-12-05T11:22:54.168Z,69.09
2018-12-05T11:25:24.362Z,68.94
2018-12-05T11:27:53.554Z,67.27
2018-12-05T11:30:22.871Z,67.45
2018-12-05T11:32:52.185Z,65.94
2018-12-05T11:35:22.071Z,65.92
2018-12-05T11:37:51.777Z,65.36
2018-12-05T11:40:21.214Z,65.09
2018-12-05T11:42:50.532Z,63.58
2018-12-05T11:45:19.731Z,64.70
2018-12-05T11:47:49.180Z,63.78
2018-12-05T11:50:19.401Z,63.48
2018-12-05T11:52:48.810Z,62.88
2018-12-05T11:55:18.152Z,63.06
2018-12-05T11:57:55.821Z,62.88
2018-12-05T12:00:25.945Z,62.17
2018-12-05T12:02:55.219Z,61.48
2018-12-05T12:05:26.461Z,59.79
2018-12-05T12:07:58.302Z,59.04
2018-12-05T12:10:41.451Z,58.30
2018-12-05T12:13:10.900Z,59.88
2018-12-05T12:15:40.336Z,58.94
2018-12-05T12:18:09.760Z,58.08
2018-12-05T12:20:39.249Z,58.04
2018-12-05T12:23:08.737Z,57.58
2018-12-05T12:25:38.276Z,57.63
2018-12-05T12:28:07.447Z,57.85
2018-12-05T12:30:36.650Z,58.41
2018-12-05T12:33:06.940Z,59.14
2018-12-05T12:35:36.451Z,59.32
2018-12-05T12:38:05.622Z,60.08
2018-12-05T12:40:35.562Z,60.40
2018-12-05T12:43:04.723Z,60.76
2018-12-05T12:45:34.370Z,59.18
2018-12-05T12:48:03.640Z,58.79
2018-12-05T12:50:33.231Z,58.63
2018-12-05T12:53:12.560Z,60.01
2018-12-05T12:55:43.404Z,60.40
2018-12-05T12:58:13.287Z,59.36
2018-12-05T13:00:51.376Z,59.90
2018-12-05T13:03:21.434Z,62.11
2018-12-05T13:05:50.730Z,62.82
2018-12-05T13:08:20.027Z,62.45
2018-12-05T13:10:49.236Z,63.23
2018-12-05T13:13:18.490Z,63.23
2018-12-05T13:15:47.699Z,62.99
2018-12-05T13:18:17.096Z,63.37
2018-12-05T13:20:46.334Z,64.22
2018-12-05T13:23:15.575Z,64.14
2018-12-05T13:25:45.049Z,65.36
2018-12-05T13:35:16.695Z,65.62
2018-12-05T13:37:45.945Z,66.65
2018-12-05T13:40:22.514Z,67.47
2018-12-05T13:42:58.296Z,67.53
2018-12-05T13:45:36.631Z,67.38
2018-12-05T13:48:06.539Z,67.01
2018-12-05T13:50:39.617Z,67.01
2018-12-05T13:53:16.678Z,65.44
2018-12-05T13:55:48.553Z,65.98
2018-12-05T14:00:59.084Z,65.22
2018-12-05T14:03:37.203Z,65.39
2018-12-05T14:06:08.309Z,65.57
2018-12-05T14:08:43.968Z,65.25
2018-12-05T14:11:14.770Z,65.51
2018-12-05T14:13:44.295Z,66.77
2018-12-05T14:16:14.028Z,66.60
2018-12-05T14:18:43.259Z,66.74
2018-12-05T14:21:12.831Z,66.60
2018-12-05T14:23:42.454Z,66.57
2018-12-05T14:26:11.731Z,65.96
2018-12-05T14:28:40.924Z,66.08
2018-12-05T14:31:10.925Z,66.48
2018-12-05T14:33:40.226Z,66.30
2018-12-05T14:36:09.577Z,66.40
2018-12-05T14:38:39.382Z,66.38
2018-12-05T14:41:08.930Z,66.89
2018-12-05T14:43:38.213Z,66.69
2018-12-05T14:46:09.379Z,66.68
2018-12-05T14:48:38.724Z,66.31
2018-12-05T14:51:08.950Z,67.13
2018-12-05T14:53:38.258Z,67.21
2018-12-05T14:56:07.726Z,67.08
2018-12-05T14:58:38.471Z,67.53
2018-12-05T15:01:10.688Z,67.68
2018-12-05T15:03:40.031Z,67.45
2018-12-05T15:06:09.293Z,67.14
2018-12-05T15:08:38.913Z,67.64
2018-12-05T15:11:08.212Z,67.61
2018-12-05T15:13:37.998Z,67.13
2018-12-05T15:16:07.521Z,67.39
2018-12-05T15:18:37.556Z,67.63
2018-12-05T15:21:06.888Z,67.87
2018-12-05T15:23:36.199Z,67.81
2018-12-05T15:26:05.735Z,67.95
2018-12-05T15:28:35.320Z,67.68
2018-12-05T15:31:04.709Z,68.12
2018-12-05T15:33:33.924Z,68.74
2018-12-05T15:36:03.502Z,68.50
2018-12-05T15:38:32.752Z,69.20
2018-12-05T15:41:01.917Z,69.95
2018-12-05T15:43:31.691Z,70.16
2018-12-05T15:46:00.882Z,70.78
2018-12-05T15:48:30.091Z,70.48
2018-12-05T15:50:59.315Z,70.82
2018-12-05T15:53:28.693Z,70.63
2018-12-05T15:55:57.976Z,70.38
2018-12-05T15:58:27.186Z,70.87
2018-12-05T16:00:56.610Z,71.65
2018-12-05T16:03:25.977Z,72.55
2018-12-05T16:05:55.254Z,73.17
2018-12-05T16:08:24.402Z,73.43
2018-12-05T16:10:53.684Z,73.73
2018-12-05T16:13:22.970Z,74.28
2018-12-05T16:15:52.319Z,74.45
2018-12-05T16:18:21.533Z,75.09
2018-12-05T16:20:50.701Z,75.13
2018-12-05T16:23:20.278Z,74.75
2018-12-05T16:25:49.494Z,74.91
2018-12-05T16:28:18.924Z,74.86
2018-12-05T16:30:48.183Z,75.04
2018-12-05T16:33:17.613Z,75.37
2018-12-05T16:35:46.902Z,75.69
2018-12-05T16:38:16.563Z,75.42
2018-12-05T16:40:46.070Z,76.38
2018-12-05T16:43:15.218Z,76.30
2018-12-05T16:45:44.405Z,76.48
2018-12-05T16:48:13.585Z,76.95
2018-12-05T16:50:42.838Z,76.43
2018-12-05T16:53:13.056Z,76.80
2018-12-05T16:55:42.334Z,76.19
2018-12-05T16:58:11.529Z,76.27
2018-12-05T17:00:40.734Z,76.53
2018-12-05T17:03:13.208Z,76.72
2018-12-05T17:05:43.863Z,76.59
2018-12-05T17:08:13.698Z,77.28
2018-12-05T17:10:44.778Z,77.54
2018-12-05T17:13:19.902Z,77.38
2018-12-05T17:15:50.433Z,77.26
2018-12-05T17:18:19.734Z,77.73
2018-12-05T17:20:48.910Z,77.54
2018-12-05T17:23:21.338Z,77.38
2018-12-05T17:25:50.562Z,77.71
2018-12-05T17:28:21.490Z,78.06
2018-12-05T17:30:50.804Z,77.37
2018-12-05T17:33:21.130Z,77.75
2018-12-05T17:35:51.914Z,77.77
2018-12-05T17:38:25.259Z,77.70
2018-12-05T17:40:55.959Z,77.87
2018-12-05T17:43:26.336Z,77.78
2018-12-05T17:45:56.440Z,77.49
2018-12-05T17:48:26.861Z,77.55
2018-12-05T17:50:56.050Z,77.72
2018-12-05T17:53:28.054Z,76.69
2018-12-05T17:55:58.980Z,77.59
2018-12-05T17:58:28.593Z,77.05
2018-12-05T18:00:59.089Z,76.98
2018-12-05T18:03:28.318Z,76.45
2018-12-05T18:05:57.522Z,76.50
2018-12-05T18:08:26.685Z,77.18
2018-12-05T18:10:55.909Z,76.39
2018-12-05T18:13:26.000Z,77.02
2018-12-05T18:15:55.258Z,76.23
2018-12-05T18:18:25.149Z,76.24
2018-12-05T18:20:54.362Z,75.44
2018-12-05T18:23:23.578Z,75.87
2018-12-05T18:25:52.791Z,75.88
2018-12-05T18:28:22.492Z,75.33
2018-12-05T18:30:51.723Z,76.03
2018-12-05T18:33:20.898Z,75.79
2018-12-05T18:35:50.791Z,76.05
2018-12-05T18:38:20.385Z,75.71
2018-12-05T18:40:49.615Z,75.50
2018-12-05T18:43:18.859Z,76.12
2018-12-05T18:45:48.087Z,76.04
2018-12-05T18:48:17.212Z,76.02
2018-12-05T18:50:47.167Z,76.07
2018-12-05T18:53:17.320Z,76.74
2018-12-05T18:55:46.489Z,77.04
2018-12-05T18:58:15.816Z,77.09
2018-12-05T19:00:46.013Z,76.94
2018-12-05T19:03:15.683Z,77.53
2018-12-05T19:05:44.963Z,77.36
2018-12-05T19:08:14.127Z,77.24
2018-12-05T19:10:44.395Z,77.44
2018-12-05T19:13:14.979Z,77.16
2018-12-05T19:15:45.560Z,77.58
2018-12-05T19:18:15.693Z,77.82
2018-12-05T19:20:45.407Z,77.98
2018-12-05T19:23:14.596Z,77.63
2018-12-05T19:25:44.463Z,77.77
2018-12-05T19:28:16.585Z,78.32
2018-12-05T19:30:46.454Z,77.87
2018-12-05T19:33:16.444Z,78.36
2018-12-05T19:35:45.936Z,79.09
2018-12-05T19:38:15.423Z,78.02
2018-12-05T19:40:45.258Z,78.39
2018-12-05T19:43:14.613Z,78.74
2018-12-05T19:45:43.811Z,78.91
2018-12-05T19:48:14.075Z,79.14
2018-12-05T19:50:44.062Z,79.52
2018-12-05T19:53:13.514Z,79.38
2018-12-05T19:55:43.238Z,79.50
2018-12-05T19:58:12.422Z,80.08
2018-12-05T20:00:41.609Z,79.69
2018-12-05T20:03:10.860Z,80.09
2018-12-05T20:05:40.101Z,79.73
2018-12-05T20:08:09.279Z,79.93
2018-12-05T20:10:38.472Z,79.86
2018-12-05T20:13:08.163Z,80.36
2018-12-05T20:15:37.377Z,79.98
2018-12-05T20:18:06.667Z,80.14
2018-12-05T20:20:36.033Z,80.17
2018-12-05T20:23:05.120Z,80.07
2018-12-05T20:25:34.364Z,80.40
2018-12-05T20:28:03.641Z,80.47
2018-12-05T20:30:32.784Z,80.81
2018-12-05T20:33:03.053Z,79.96
2018-12-05T20:35:32.271Z,80.66
2018-12-05T20:38:01.956Z,80.98
2018-12-05T20:40:31.108Z,80.75
2018-12-05T20:43:00.475Z,80.42
2018-12-05T20:45:29.666Z,80.59
2018-12-05T20:47:58.792Z,80.31
2018-12-05T20:50:28.033Z,80.30
2018-12-05T20:52:57.263Z,80.38
2018-12-05T20:55:26.913Z,80.66
2018-12-05T20:57:56.105Z,81.00
2018-12-05T21:00:25.330Z,80.62
2018-12-05T21:02:55.666Z,81.53
2018-12-05T21:05:25.386Z,80.66
2018-12-05T21:07:54.577Z,81.58
2018-12-05T21:10:23.691Z,81.37
2018-12-05T21:12:52.974Z,80.69
2018-12-05T21:15:22.166Z,81.43
2018-12-05T21:17:51.408Z,81.04
2018-12-05T21:20:20.833Z,81.04
2018-12-05T21:22:50.234Z,81.75
2018-12-05T21:25:19.441Z,81.74
2018-12-05T21:27:48.691Z,81.23
2018-12-05T21:30:18.011Z,81.84
2018-12-05T21:32:47.292Z,81.53
2018-12-05T21:35:16.945Z,81.79
2018-12-05T21:37:46.137Z,81.37
2018-12-05T21:40:15.293Z,81.73
2018-12-05T21:42:44.738Z,81.55
2018-12-05T21:45:13.959Z,81.56
2018-12-05T21:47:43.142Z,81.94
2018-12-05T21:50:12.434Z,82.23
2018-12-05T21:52:41.619Z,81.95
2018-12-05T21:55:10.917Z,81.08
2018-12-05T21:57:40.130Z,80.82
2018-12-05T22:00:12.114Z,81.35
2018-12-05T22:02:41.240Z,81.12
2018-12-05T22:05:10.842Z,81.02
2018-12-05T22:07:41.845Z,80.88
2018-12-05T22:10:11.044Z,81.20
2018-12-05T22:12:40.189Z,81.05
2018-12-05T22:15:09.615Z,81.32
2018-12-05T22:17:39.116Z,80.98
2018-12-05T22:20:09.416Z,80.51
2018-12-05T22:22:38.708Z,80.98
2018-12-05T22:25:07.967Z,80.98
2018-12-05T22:27:37.079Z,80.53
2018-12-05T22:30:08.469Z,81.22
2018-12-05T22:32:38.526Z,81.61
2018-12-05T22:35:07.760Z,80.82
2018-12-05T22:37:37.201Z,81.37
2018-12-05T22:40:07.793Z,80.55
2018-12-05T22:42:38.366Z,80.29
2018-12-05T22:45:07.908Z,80.56
2018-12-05T22:47:37.477Z,79.96
2018-12-05T22:50:08.385Z,80.38
2018-12-05T22:52:37.598Z,80.57
2018-12-05T22:55:07.634Z,80.13
2018-12-05T22:57:37.284Z,80.38
2018-12-05T23:00:10.450Z,79.69
2018-12-05T23:02:40.725Z,80.16
2018-12-05T23:05:09.847Z,79.60
2018-12-05T23:07:39.321Z,79.62
2018-12-05T23:10:08.935Z,80.03
2018-12-05T23:12:38.105Z,80.13
2018-12-05T23:15:09.415Z,79.45
2018-12-05T23:17:38.593Z,79.53
2018-12-05T23:20:08.380Z,79.78
2018-12-05T23:22:38.838Z,80.21
2018-12-05T23:25:08.714Z,79.21
2018-12-05T23:27:37.876Z,80.05
2018-12-05T23:30:07.390Z,79.27
2018-12-05T23:32:37.289Z,78.96
2018-12-05T23:35:06.874Z,79.32
2018-12-05T23:37:36.501Z,79.16
2018-12-05T23:40:07.026Z,78.58
2018-12-05T23:42:36.290Z,78.34
2018-12-05T23:45:07.393Z,78.24
2018-12-05T23:47:36.546Z,78.59
2018-12-05T23:50:07.089Z,78.54
2018-12-05T23:52:37.281Z,77.99
2018-12-05T23:55:06.690Z,77.80
2018-12-05T23:57:36.177Z,78.35
